createdAt,value
2023-01-21T00:02:17.675Z,5.97
2023-01-21T00:04:47.196Z,5.97
2023-01-21T00:07:15.855Z,6.25
2023-01-21T00:09:44.822Z,6.40
2023-01-21T00:12:13.567Z,6.53
2023-01-21T00:14:42.782Z,6.10
2023-01-21T00:17:11.449Z,5.63
2023-01-21T00:19:40.564Z,6.10
2023-01-21T00:22:09.443Z,5.85
2023-01-21T00:24:38.525Z,6.18
2023-01-21T00:27:07.237Z,6.10
2023-01-21T00:29:36.306Z,5.68
2023-01-21T00:32:05.287Z,5.75
2023-01-21T00:34:34.316Z,5.55
2023-01-21T00:37:02.989Z,5.57
2023-01-21T00:39:32.207Z,6.18
2023-01-21T00:42:01.656Z,5.25
2023-01-21T00:44:30.804Z,5.97
2023-01-21T00:46:59.477Z,5.45
2023-01-21T00:49:28.510Z,6.32
2023-01-21T00:51:57.976Z,5.95
2023-01-21T00:54:27.039Z,5.40
2023-01-21T00:56:55.968Z,6.10
2023-01-21T00:59:27.596Z,7.10
2023-01-21T01:01:56.279Z,6.28
2023-01-21T01:04:25.355Z,6.10
2023-01-21T01:06:54.090Z,6.47
2023-01-21T01:09:23.110Z,5.75
2023-01-21T01:11:52.854Z,5.43
2023-01-21T01:14:23.249Z,6.43
2023-01-21T01:16:51.905Z,5.00
2023-01-21T01:19:20.957Z,5.72
2023-01-21T01:21:49.645Z,5.95
2023-01-21T01:24:18.717Z,5.68
2023-01-21T01:26:47.415Z,5.82
2023-01-21T01:29:16.507Z,5.25
2023-01-21T01:31:45.292Z,5.78
2023-01-21T01:34:14.112Z,6.43
2023-01-21T01:36:42.948Z,4.90
2023-01-21T01:39:12.037Z,4.93
2023-01-21T01:41:41.007Z,4.75
2023-01-21T01:44:48.538Z,5.15
2023-01-21T01:47:17.176Z,5.35
2023-01-21T01:49:46.189Z,5.53
2023-01-21T01:52:14.846Z,5.93
2023-01-21T01:54:48.544Z,5.28
2023-01-21T01:57:19.457Z,4.47
2023-01-21T01:59:48.318Z,5.30
2023-01-21T02:02:18.891Z,5.15
2023-01-21T02:05:00.897Z,4.97
2023-01-21T02:07:30.817Z,5.30
2023-01-21T02:10:00.841Z,4.93
2023-01-21T02:12:29.386Z,4.30
2023-01-21T02:14:58.237Z,4.50
2023-01-21T02:17:44.128Z,4.85
2023-01-21T02:20:53.625Z,4.85
2023-01-21T02:24:11.976Z,4.93
2023-01-21T02:27:17.278Z,4.43
2023-01-21T02:30:13.063Z,4.20
2023-01-21T02:33:25.448Z,4.35
2023-01-21T02:36:16.255Z,4.00
2023-01-21T02:39:04.160Z,3.80
2023-01-21T02:42:06.986Z,4.00
2023-01-21T02:45:27.886Z,3.90
2023-01-21T02:48:23.201Z,4.22
2023-01-21T02:50:53.687Z,3.60
2023-01-21T02:53:30.233Z,3.72
2023-01-21T02:56:20.905Z,3.20
2023-01-21T02:59:01.200Z,3.50
2023-01-21T03:02:06.180Z,3.30
2023-01-21T03:04:53.787Z,2.80
2023-01-21T03:07:29.476Z,3.20
2023-01-21T03:10:09.106Z,3.45
2023-01-21T03:13:04.895Z,2.60
2023-01-21T03:16:00.731Z,2.90
2023-01-21T03:18:38.759Z,2.50
2023-01-21T03:21:11.114Z,2.78
2023-01-21T03:23:41.784Z,2.55
2023-01-21T03:26:11.236Z,3.03
2023-01-21T03:28:46.646Z,2.10
2023-01-21T03:31:34.877Z,2.22
2023-01-21T03:34:07.283Z,2.78
2023-01-21T03:37:17.547Z,2.70
2023-01-21T03:40:19.582Z,2.40
2023-01-21T03:42:50.980Z,2.67
2023-01-21T03:45:28.249Z,2.33
2023-01-21T03:47:59.937Z,2.78
2023-01-21T03:50:35.968Z,1.75
2023-01-21T03:53:04.754Z,1.95
2023-01-21T03:55:36.730Z,1.98
2023-01-21T03:58:05.294Z,1.88
2023-01-21T04:00:34.179Z,2.40
2023-01-21T04:03:02.968Z,2.20
2023-01-21T04:05:32.694Z,1.92
2023-01-21T04:08:01.249Z,1.90
2023-01-21T04:10:30.144Z,2.63
2023-01-21T04:12:58.711Z,1.58
2023-01-21T04:15:27.794Z,1.83
2023-01-21T04:17:56.364Z,1.80
2023-01-21T04:20:26.329Z,1.80
2023-01-21T04:22:54.894Z,1.83
2023-01-21T04:25:23.707Z,1.45
2023-01-21T04:27:52.284Z,1.92
2023-01-21T04:30:22.194Z,1.60
2023-01-21T04:32:50.924Z,1.42
2023-01-21T04:35:19.784Z,1.75
2023-01-21T04:37:48.350Z,1.60
2023-01-21T04:40:17.990Z,1.40
2023-01-21T04:42:46.717Z,1.42
2023-01-21T04:45:15.628Z,1.65
2023-01-21T04:47:44.629Z,1.13
2023-01-21T04:50:14.150Z,1.20
2023-01-21T04:52:42.805Z,1.40
2023-01-21T04:55:11.777Z,1.60
2023-01-21T04:57:40.385Z,1.33
2023-01-21T05:00:10.371Z,1.38
2023-01-21T05:02:39.050Z,1.50
2023-01-21T05:05:08.568Z,1.30
2023-01-21T05:07:37.175Z,1.30
2023-01-21T05:10:07.668Z,1.40
2023-01-21T05:12:36.185Z,1.08
2023-01-21T05:15:05.841Z,1.10
2023-01-21T05:17:34.492Z,0.95
2023-01-21T05:20:05.023Z,1.17
2023-01-21T05:22:33.595Z,1.00
2023-01-21T05:25:03.947Z,0.90
2023-01-21T05:27:32.546Z,1.27
2023-01-21T05:30:02.452Z,1.15
2023-01-21T05:32:30.968Z,1.17
2023-01-21T05:34:59.835Z,0.95
2023-01-21T05:37:28.349Z,0.88
2023-01-21T05:39:58.365Z,0.93
2023-01-21T05:42:26.915Z,1.30
2023-01-21T05:44:55.896Z,0.60
2023-01-21T05:47:24.525Z,1.05
2023-01-21T05:49:53.584Z,0.93
2023-01-21T05:52:22.138Z,0.70
2023-01-21T05:55:01.438Z,0.93
2023-01-21T05:57:31.308Z,0.80
2023-01-21T06:00:00.214Z,0.88
2023-01-21T06:02:28.748Z,0.73
2023-01-21T06:04:57.666Z,1.00
2023-01-21T06:07:26.201Z,0.90
2023-01-21T06:09:55.096Z,0.52
2023-01-21T06:12:24.829Z,1.52
2023-01-21T06:14:54.108Z,0.82
2023-01-21T06:17:22.649Z,0.60
2023-01-21T06:19:51.444Z,1.02
2023-01-21T06:22:20.020Z,0.88
2023-01-21T06:24:48.868Z,0.75
2023-01-21T06:27:17.348Z,0.60
2023-01-21T06:29:46.186Z,0.70
2023-01-21T06:32:14.633Z,0.77
2023-01-21T06:34:45.793Z,0.95
2023-01-21T06:37:15.093Z,0.90
2023-01-21T06:39:45.192Z,0.88
2023-01-21T06:42:13.650Z,0.90
2023-01-21T06:44:42.467Z,1.10
2023-01-21T06:47:11.055Z,0.63
2023-01-21T06:49:39.964Z,0.80
2023-01-21T06:52:08.828Z,0.90
2023-01-21T06:54:37.717Z,0.80
2023-01-21T06:57:06.242Z,0.70
2023-01-21T06:59:35.063Z,0.80
2023-01-21T07:02:03.676Z,0.73
2023-01-21T07:04:32.513Z,0.88
2023-01-21T07:07:01.055Z,0.57
2023-01-21T07:09:29.898Z,0.60
2023-01-21T07:11:58.856Z,1.08
2023-01-21T07:14:27.649Z,0.75
2023-01-21T07:16:56.956Z,0.80
2023-01-21T07:19:26.937Z,0.80
2023-01-21T07:21:55.534Z,0.85
2023-01-21T07:24:25.507Z,0.80
2023-01-21T07:26:53.967Z,0.70
2023-01-21T07:29:23.525Z,1.10
2023-01-21T07:31:52.158Z,0.88
2023-01-21T07:34:21.105Z,0.77
2023-01-21T07:36:49.605Z,0.63
2023-01-21T07:39:18.438Z,0.68
2023-01-21T07:41:46.928Z,0.93
2023-01-21T07:44:15.706Z,1.02
2023-01-21T07:46:44.211Z,0.73
2023-01-21T07:49:17.498Z,0.88
2023-01-21T07:51:46.246Z,1.00
2023-01-21T07:54:15.372Z,1.17
2023-01-21T07:56:43.865Z,0.98
2023-01-21T07:59:13.600Z,0.70
2023-01-21T08:01:42.395Z,0.65
2023-01-21T08:04:11.236Z,0.73
2023-01-21T08:06:42.040Z,0.77
2023-01-21T08:09:11.129Z,0.80
2023-01-21T08:11:39.620Z,0.55
2023-01-21T08:14:08.405Z,0.93
2023-01-21T08:16:36.921Z,1.45
2023-01-21T08:19:05.725Z,0.93
2023-01-21T08:21:34.225Z,0.60
2023-01-21T08:24:03.243Z,0.82
2023-01-21T08:26:31.656Z,0.80
2023-01-21T08:29:01.007Z,0.70
2023-01-21T08:31:29.782Z,0.77
2023-01-21T08:34:13.272Z,0.68
2023-01-21T08:36:42.365Z,0.77
2023-01-21T08:39:12.914Z,0.77
2023-01-21T08:41:41.748Z,1.00
2023-01-21T08:44:10.476Z,0.82
2023-01-21T08:46:39.239Z,0.80
2023-01-21T08:49:07.941Z,1.05
2023-01-21T08:51:36.768Z,0.88
2023-01-21T08:54:08.874Z,1.00
2023-01-21T08:56:38.923Z,0.77
2023-01-21T08:59:07.388Z,1.00
2023-01-21T09:01:41.178Z,1.30
2023-01-21T09:04:10.403Z,0.90
2023-01-21T09:06:39.385Z,0.90
2023-01-21T09:09:10.225Z,1.27
2023-01-21T09:11:39.259Z,0.90
2023-01-21T09:14:07.956Z,1.58
2023-01-21T09:16:37.434Z,1.40
2023-01-21T09:19:06.252Z,1.65
2023-01-21T09:21:35.257Z,1.65
2023-01-21T09:24:04.127Z,2.08
2023-01-21T09:26:33.253Z,2.95
2023-01-21T09:29:02.365Z,2.78
2023-01-21T09:31:31.992Z,3.33
2023-01-21T09:34:02.623Z,3.17
2023-01-21T09:36:33.115Z,3.90
2023-01-21T09:39:01.940Z,3.13
2023-01-21T09:41:59.054Z,3.45
2023-01-21T09:44:40.427Z,2.80
2023-01-21T09:47:23.228Z,2.45
2023-01-21T09:50:11.140Z,2.83
2023-01-21T09:52:40.932Z,2.47
2023-01-21T09:55:19.877Z,2.45
2023-01-21T09:58:13.606Z,2.60
2023-01-21T10:00:54.128Z,2.40
2023-01-21T10:03:37.691Z,2.95
2023-01-21T10:06:20.660Z,2.40
2023-01-21T10:09:20.402Z,2.58
2023-01-21T10:12:25.713Z,2.80
2023-01-21T10:15:44.170Z,2.42
2023-01-21T10:18:20.439Z,3.20
2023-01-21T10:21:05.742Z,3.13
2023-01-21T10:24:03.359Z,2.97
2023-01-21T10:26:33.233Z,3.60
2023-01-21T10:29:01.968Z,3.28
2023-01-21T10:31:36.236Z,3.42
2023-01-21T10:34:18.852Z,4.15
2023-01-21T10:37:07.677Z,4.93
2023-01-21T10:39:48.700Z,6.25
2023-01-21T10:42:43.979Z,5.22
2023-01-21T10:45:21.495Z,4.28
2023-01-21T10:47:53.110Z,4.20
2023-01-21T10:50:59.150Z,3.47
2023-01-21T10:53:36.907Z,3.83
2023-01-21T10:56:53.042Z,3.88
2023-01-21T10:59:24.378Z,3.53
2023-01-21T11:02:13.809Z,5.03
2023-01-21T11:04:42.526Z,6.53
2023-01-21T11:07:13.707Z,6.00
2023-01-21T11:09:45.541Z,5.75
2023-01-21T11:12:18.361Z,5.82
2023-01-21T11:14:57.132Z,5.55
2023-01-21T11:17:34.633Z,6.43
2023-01-21T11:20:26.539Z,4.28
2023-01-21T11:22:55.003Z,7.70
2023-01-21T11:25:54.680Z,6.80
2023-01-21T11:28:27.959Z,2.20
2023-01-21T11:31:31.637Z,1.67
2023-01-21T11:34:17.601Z,2.47
2023-01-21T11:36:56.590Z,1.90
2023-01-21T11:39:26.851Z,3.42
2023-01-21T11:42:04.924Z,2.47
2023-01-21T11:44:34.106Z,2.40
2023-01-21T11:47:03.258Z,2.72
2023-01-21T11:49:33.251Z,2.30
2023-01-21T11:52:17.493Z,3.00
2023-01-21T11:54:46.674Z,2.63
2023-01-21T11:57:32.209Z,2.50
2023-01-21T12:00:17.632Z,3.50
2023-01-21T12:03:00.131Z,3.10
2023-01-21T12:05:37.575Z,3.05
2023-01-21T12:08:06.679Z,3.78
2023-01-21T12:10:46.314Z,4.25
2023-01-21T12:13:49.581Z,4.32
2023-01-21T12:16:52.083Z,4.13
2023-01-21T12:19:45.670Z,4.78
2023-01-21T12:22:39.034Z,5.35
2023-01-21T12:25:57.290Z,5.28
2023-01-21T12:28:50.933Z,4.97
2023-01-21T12:31:33.068Z,4.50
2023-01-21T12:34:04.618Z,4.10
2023-01-21T12:36:47.113Z,4.22
2023-01-21T12:39:28.939Z,4.70
2023-01-21T12:42:13.237Z,4.10
2023-01-21T12:44:52.685Z,4.15
2023-01-21T12:47:47.008Z,4.28
2023-01-21T12:50:41.333Z,3.77
2023-01-21T12:53:09.969Z,4.22
2023-01-21T12:56:19.750Z,5.68
2023-01-21T12:59:45.978Z,4.07
2023-01-21T13:02:41.411Z,3.95
2023-01-21T13:05:19.419Z,4.00
2023-01-21T13:08:18.953Z,4.20
2023-01-21T13:10:55.588Z,4.40
2023-01-21T13:13:32.444Z,4.57
2023-01-21T13:16:06.310Z,4.20
2023-01-21T13:18:38.221Z,4.85
2023-01-21T13:21:42.419Z,3.97
2023-01-21T13:27:13.147Z,3.67
2023-01-21T13:30:08.184Z,4.57
2023-01-21T13:33:29.238Z,3.50
2023-01-21T13:36:10.716Z,4.10
2023-01-21T13:39:10.759Z,3.33
2023-01-21T13:42:06.918Z,3.58
2023-01-21T13:44:54.750Z,4.38
2023-01-21T13:47:52.231Z,3.30
2023-01-21T13:50:46.716Z,3.85
2023-01-21T13:53:31.073Z,3.95
2023-01-21T13:56:39.744Z,4.03
2023-01-21T13:59:16.016Z,3.85
2023-01-21T14:02:22.874Z,3.75
2023-01-21T14:05:22.981Z,3.60
2023-01-21T14:08:16.030Z,3.78
2023-01-21T14:10:52.129Z,3.67
2023-01-21T14:13:35.730Z,3.83
2023-01-21T14:19:24.095Z,3.63
2023-01-21T14:22:18.571Z,3.50
2023-01-21T14:25:34.403Z,3.47
2023-01-21T14:28:35.597Z,3.97
2023-01-21T14:31:41.563Z,4.15
2023-01-21T14:34:26.600Z,3.50
2023-01-21T14:37:15.907Z,4.07
2023-01-21T14:40:29.539Z,4.15
2023-01-21T14:43:00.454Z,3.90
2023-01-21T14:45:51.560Z,4.40
2023-01-21T14:48:40.643Z,4.32
2023-01-21T14:51:11.355Z,4.03
2023-01-21T14:53:50.228Z,4.00
2023-01-21T14:56:32.559Z,4.53
2023-01-21T14:59:24.829Z,4.65
2023-01-21T15:02:01.864Z,4.05
2023-01-21T15:04:37.609Z,3.95
2023-01-21T15:07:17.830Z,4.18
2023-01-21T15:09:55.235Z,4.38
2023-01-21T15:12:32.800Z,4.65
2023-01-21T15:15:25.076Z,3.92
2023-01-21T15:17:59.708Z,4.40
2023-01-21T15:20:50.847Z,3.83
2023-01-21T15:23:36.378Z,4.20
2023-01-21T15:26:08.540Z,4.22
2023-01-21T15:28:49.626Z,5.18
2023-01-21T15:31:21.459Z,4.03
2023-01-21T15:34:04.579Z,4.10
2023-01-21T15:36:44.447Z,4.53
2023-01-21T15:39:24.767Z,4.07
2023-01-21T15:42:26.700Z,4.82
2023-01-21T15:45:21.339Z,3.53
2023-01-21T15:48:41.862Z,4.25
2023-01-21T15:51:40.780Z,4.03
2023-01-21T15:54:31.443Z,4.15
2023-01-21T15:57:38.257Z,4.32
2023-01-21T16:00:38.660Z,4.47
2023-01-21T16:03:24.172Z,4.13
2023-01-21T16:06:27.868Z,5.15
2023-01-21T16:09:06.094Z,5.45
2023-01-21T16:11:34.863Z,5.18
2023-01-21T16:14:52.800Z,5.15
2023-01-21T16:18:07.600Z,5.28
2023-01-21T16:23:06.290Z,4.93
2023-01-21T16:25:34.918Z,5.32
2023-01-21T16:28:03.854Z,5.15
2023-01-21T16:30:32.454Z,5.35
2023-01-21T16:33:27.721Z,5.10
2023-01-21T16:35:57.629Z,4.43
2023-01-21T16:38:28.239Z,4.90
2023-01-21T16:41:24.135Z,4.43
2023-01-21T16:44:06.058Z,5.68
2023-01-21T16:46:38.735Z,4.15
2023-01-21T16:49:14.584Z,4.30
2023-01-21T16:51:50.943Z,4.38
2023-01-21T16:54:33.236Z,4.40
2023-01-21T16:57:03.365Z,5.43
2023-01-21T16:59:42.006Z,4.70
2023-01-21T17:02:19.123Z,5.75
2023-01-21T17:04:48.377Z,5.28
2023-01-21T17:07:21.965Z,5.72
2023-01-21T17:09:57.214Z,5.53
2023-01-21T17:12:26.618Z,6.68
2023-01-21T17:15:04.358Z,5.88
2023-01-21T17:17:34.489Z,5.43
2023-01-21T17:20:05.274Z,5.90
2023-01-21T17:22:35.089Z,5.53
2023-01-21T17:25:21.982Z,5.20
2023-01-21T17:27:50.678Z,6.45
2023-01-21T17:30:25.360Z,6.40
2023-01-21T17:32:55.668Z,5.53
2023-01-21T17:35:25.502Z,5.63
2023-01-21T17:38:05.510Z,5.47
2023-01-21T17:40:41.695Z,5.90
2023-01-21T17:43:14.960Z,5.60
2023-01-21T17:45:45.248Z,6.65
2023-01-21T17:48:33.186Z,6.68
2023-01-21T17:51:06.148Z,6.55
2023-01-21T17:53:38.138Z,6.28
2023-01-21T17:56:13.140Z,6.37
2023-01-21T17:58:46.122Z,7.18
2023-01-21T18:01:16.596Z,6.63
2023-01-21T18:03:45.623Z,6.53
2023-01-21T18:06:20.048Z,7.35
2023-01-21T18:08:50.643Z,7.57
2023-01-21T18:11:20.357Z,6.78
2023-01-21T18:13:49.296Z,8.13
2023-01-21T18:16:18.277Z,9.10
2023-01-21T18:18:47.267Z,9.40
2023-01-21T18:21:19.968Z,10.05
2023-01-21T18:23:49.102Z,10.15
2023-01-21T18:26:31.721Z,9.38
2023-01-21T18:29:00.430Z,9.27
2023-01-21T18:31:29.496Z,10.73
2023-01-21T18:33:58.293Z,11.82
2023-01-21T18:36:27.260Z,10.88
2023-01-21T18:38:57.187Z,11.05
2023-01-21T18:41:30.331Z,9.98
2023-01-21T18:43:59.207Z,9.30
2023-01-21T18:46:28.806Z,10.52
2023-01-21T18:48:57.443Z,10.50
2023-01-21T18:51:26.767Z,11.38
2023-01-21T18:53:55.545Z,11.30
2023-01-21T18:56:24.495Z,10.23
2023-01-21T18:58:53.750Z,10.27
2023-01-21T19:01:24.094Z,9.80
2023-01-21T19:03:55.160Z,10.90
2023-01-21T19:06:24.858Z,10.05
2023-01-21T19:08:55.495Z,10.50
2023-01-21T19:11:24.536Z,11.05
2023-01-21T19:13:53.324Z,10.40
2023-01-21T19:16:22.582Z,11.48
2023-01-21T19:18:51.332Z,9.80
2023-01-21T19:21:21.432Z,10.43
2023-01-21T19:23:50.083Z,10.35
2023-01-21T19:26:19.022Z,10.18
2023-01-21T19:28:48.020Z,10.68
2023-01-21T19:31:17.327Z,11.60
2023-01-21T19:33:47.338Z,11.15
2023-01-21T19:36:17.748Z,10.30
2023-01-21T19:38:55.083Z,9.85
2023-01-21T19:41:24.332Z,9.73
2023-01-21T19:43:53.011Z,10.18
2023-01-21T19:46:24.088Z,9.27
2023-01-21T19:48:53.913Z,10.60
2023-01-21T19:51:23.049Z,8.77
2023-01-21T19:53:51.656Z,10.32
2023-01-21T19:56:23.477Z,9.32
2023-01-21T19:58:51.860Z,9.75
2023-01-21T20:01:20.938Z,9.95
2023-01-21T20:03:59.653Z,9.68
2023-01-21T20:06:35.214Z,9.60
2023-01-21T20:09:04.851Z,10.02
2023-01-21T20:11:34.012Z,10.70
2023-01-21T20:14:02.501Z,10.35
2023-01-21T20:16:31.523Z,11.93
2023-01-21T20:19:02.348Z,10.88
2023-01-21T20:21:31.184Z,10.35
2023-01-21T20:23:59.643Z,9.68
2023-01-21T20:26:28.860Z,9.38
2023-01-21T20:29:00.679Z,9.43
2023-01-21T20:31:30.539Z,10.43
2023-01-21T20:33:58.951Z,9.40
2023-01-21T20:36:27.788Z,10.65
2023-01-21T20:38:56.260Z,9.30
2023-01-21T20:41:29.124Z,10.18
2023-01-21T20:43:58.062Z,10.45
2023-01-21T20:46:28.887Z,9.85
2023-01-21T20:48:57.737Z,10.55
2023-01-21T20:51:28.064Z,11.13
2023-01-21T20:53:56.747Z,10.68
2023-01-21T20:56:27.048Z,9.95
2023-01-21T20:58:55.720Z,9.95
2023-01-21T21:01:25.576Z,9.73
2023-01-21T21:03:54.207Z,9.90
2023-01-21T21:06:29.361Z,9.93
2023-01-21T21:08:58.051Z,10.30
2023-01-21T21:11:27.015Z,9.80
2023-01-21T21:13:56.243Z,9.20
2023-01-21T21:16:28.862Z,9.65
2023-01-21T21:18:57.550Z,8.50
2023-01-21T21:21:26.449Z,9.48
2023-01-21T21:23:55.035Z,9.02
2023-01-21T21:26:26.383Z,8.57
2023-01-21T21:28:55.631Z,8.15
2023-01-21T21:31:25.144Z,9.68
2023-01-21T21:33:53.937Z,9.95
2023-01-21T21:36:23.736Z,9.48
2023-01-21T21:38:56.132Z,9.18
2023-01-21T21:41:44.472Z,10.00
2023-01-21T21:44:13.514Z,9.30
2023-01-21T21:47:00.832Z,9.75
2023-01-21T21:49:31.306Z,9.38
2023-01-21T21:52:02.645Z,9.68
2023-01-21T21:54:31.483Z,10.05
2023-01-21T21:56:59.883Z,9.52
2023-01-21T21:59:28.580Z,9.02
2023-01-21T22:01:57.083Z,9.63
2023-01-21T22:04:25.834Z,9.50
2023-01-21T22:06:54.282Z,9.10
2023-01-21T22:09:23.086Z,9.20
2023-01-21T22:11:51.504Z,9.77
2023-01-21T22:14:20.254Z,9.65
2023-01-21T22:16:50.147Z,9.82
2023-01-21T22:19:20.459Z,10.15
2023-01-21T22:21:49.126Z,8.70
2023-01-21T22:24:18.107Z,9.43
2023-01-21T22:26:46.789Z,10.23
2023-01-21T22:29:15.725Z,10.10
2023-01-21T22:31:44.513Z,9.57
2023-01-21T22:34:13.638Z,9.90
2023-01-21T22:36:47.196Z,9.40
2023-01-21T22:39:17.181Z,10.85
2023-01-21T22:41:45.833Z,10.07
2023-01-21T22:44:14.800Z,11.32
2023-01-21T22:46:43.497Z,10.75
2023-01-21T22:49:12.618Z,10.65
2023-01-21T22:51:41.237Z,10.23
2023-01-21T22:54:10.793Z,10.15
2023-01-21T22:56:52.215Z,10.40
2023-01-21T22:59:22.235Z,11.33
2023-01-21T23:01:51.447Z,10.40
2023-01-21T23:04:20.480Z,10.25
2023-01-21T23:06:51.362Z,10.20
2023-01-21T23:09:20.310Z,10.52
2023-01-21T23:11:48.943Z,10.18
2023-01-21T23:14:17.982Z,10.77
2023-01-21T23:16:46.893Z,10.57
2023-01-21T23:19:16.539Z,10.45
2023-01-21T23:21:46.112Z,10.45
2023-01-21T23:24:15.149Z,11.35
2023-01-21T23:26:43.799Z,10.68
2023-01-21T23:29:12.781Z,11.10
2023-01-21T23:31:41.524Z,10.48
2023-01-21T23:34:13.589Z,10.73
2023-01-21T23:36:42.319Z,9.82
2023-01-21T23:39:11.569Z,10.52
2023-01-21T23:41:40.306Z,10.77
2023-01-21T23:44:10.759Z,9.95
2023-01-21T23:46:39.847Z,9.68
2023-01-21T23:49:09.633Z,10.02
2023-01-21T23:51:38.149Z,9.73
2023-01-21T23:54:06.881Z,10.52
2023-01-21T23:56:35.390Z,10.30
2023-01-21T23:59:04.138Z,9.95
